Time;durP1;ratioP1;P1;durP2;ratioP2;P2;SDS_P1;SDS_P2;PMS_P1;PMS_P2;Temp;Humidity;BMP_temperature;BMP_pressure;BME280_temperature;BME280_humidity;BME280_pressure;Samples;Min_cycle;Max_cycle;Signal;HPM_P1;HPM_P2
2021/11/27 00:00:32;;;;;;;4.90;2.20;;;10.40;81.50;;;;;;5074518;28;20024;-76
2021/11/27 00:02:58;;;;;;;4.85;2.58;;;10.40;81.50;;;;;;5056500;28;20032;-76
2021/11/27 00:05:26;;;;;;;4.57;2.40;;;10.40;81.60;;;;;;5056483;28;20029;-76
2021/11/27 00:07:52;;;;;;;4.45;2.40;;;10.40;81.70;;;;;;5056079;28;20036;-77
2021/11/27 00:10:20;;;;;;;4.38;2.20;;;10.40;81.70;;;;;;5056485;28;20078;-76
2021/11/27 00:12:48;;;;;;;4.45;2.28;;;10.50;81.80;;;;;;5056295;28;20683;-76
2021/11/27 00:15:14;;;;;;;4.45;2.28;;;10.40;81.70;;;;;;5074244;28;20474;-76
2021/11/27 00:17:40;;;;;;;4.40;2.35;;;10.40;81.70;;;;;;5073877;28;20100;-76
2021/11/27 00:20:10;;;;;;;4.38;2.50;;;10.40;81.80;;;;;;5056271;28;20468;-76
2021/11/27 00:22:35;;;;;;;4.80;2.50;;;10.40;81.80;;;;;;5073848;28;20048;-76
2021/11/27 00:25:01;;;;;;;5.57;2.45;;;10.40;81.80;;;;;;5074057;28;20055;-77
2021/11/27 00:27:27;;;;;;;4.93;2.70;;;10.40;81.80;;;;;;5055796;28;20059;-76
2021/11/27 00:29:53;;;;;;;5.57;3.15;;;10.40;82.40;;;;;;5055988;28;20021;-76
2021/11/27 00:32:19;;;;;;;5.25;2.90;;;10.40;81.90;;;;;;5055991;28;20024;-76
2021/11/27 00:34:44;;;;;;;5.47;3.17;;;10.40;81.90;;;;;;5055751;28;20025;-76
2021/11/27 00:37:10;;;;;;;6.18;3.53;;;10.40;81.90;;;;;;5055426;28;20102;-76
2021/11/27 00:39:36;;;;;;;6.30;3.45;;;10.30;81.90;;;;;;5055876;28;20082;-76
2021/11/27 00:42:02;;;;;;;6.95;4.10;;;10.40;82.00;;;;;;5073634;28;20547;-76
2021/11/27 00:44:27;;;;;;;6.65;3.95;;;10.40;82.10;;;;;;5055728;28;20025;-76
2021/11/27 00:46:53;;;;;;;7.45;4.35;;;10.40;82.10;;;;;;5055651;28;20039;-76
2021/11/27 00:49:19;;;;;;;7.50;4.68;;;10.40;82.20;;;;;;5073526;28;20504;-77
2021/11/27 00:51:45;;;;;;;6.85;4.28;;;10.40;82.10;;;;;;5073108;28;20094;-75
2021/11/27 00:54:11;;;;;;;7.20;4.65;;;10.30;82.20;;;;;;5055215;28;20028;-76
2021/11/27 00:56:38;;;;;;;8.15;5.10;;;10.30;82.30;;;;;;5073245;28;20025;-76
2021/11/27 00:59:03;;;;;;;7.45;4.93;;;10.40;82.20;;;;;;5055522;28;20032;-76
2021/11/27 01:01:32;;;;;;;7.97;4.90;;;10.40;82.20;;;;;;5073177;28;20027;-76
2021/11/27 01:03:58;;;;;;;7.18;4.60;;;10.40;82.30;;;;;;5073288;28;20020;-76
2021/11/27 01:06:26;;;;;;;7.47;4.88;;;10.40;82.30;;;;;;5073171;28;20086;-76
2021/11/27 01:08:55;;;;;;;7.15;4.70;;;10.30;82.30;;;;;;5055040;28;20020;-76
2021/11/27 01:11:28;;;;;;;7.00;4.40;;;10.30;82.80;;;;;;5055184;28;20028;-76
2021/11/27 01:13:55;;;;;;;7.93;4.90;;;10.40;82.30;;;;;;5055323;28;20635;-76
2021/11/27 01:16:24;;;;;;;6.80;4.60;;;10.50;82.40;;;;;;5055089;28;20547;-76
2021/11/27 01:18:51;;;;;;;6.72;4.70;;;10.50;82.40;;;;;;5054995;28;20078;-76
2021/11/27 01:21:23;;;;;;;7.75;4.70;;;10.40;82.40;;;;;;5072921;28;20100;-76
2021/11/27 01:23:54;;;;;;;7.30;4.55;;;10.40;82.40;;;;;;5054958;28;20040;-76
2021/11/27 01:26:20;;;;;;;7.65;4.90;;;10.30;82.40;;;;;;5055021;28;20032;-76
2021/11/27 01:28:46;;;;;;;7.25;4.57;;;10.40;82.50;;;;;;5072524;28;20550;-76
2021/11/27 01:31:13;;;;;;;7.65;4.65;;;10.40;82.50;;;;;;5072846;28;20031;-76
2021/11/27 01:33:38;;;;;;;7.70;4.43;;;10.30;82.40;;;;;;5054701;28;20020;-76
2021/11/27 01:36:05;;;;;;;8.30;4.70;;;10.30;82.40;;;;;;5054913;28;20394;-76
2021/11/27 01:38:31;;;;;;;7.40;4.40;;;10.40;82.50;;;;;;5054488;28;20029;-76
2021/11/27 01:40:57;;;;;;;6.85;4.40;;;10.50;82.60;;;;;;5054697;28;20532;-76
2021/11/27 01:43:23;;;;;;;6.93;4.50;;;10.40;82.60;;;;;;5072596;28;20056;-76
2021/11/27 01:45:49;;;;;;;6.63;4.38;;;10.50;82.60;;;;;;5072687;28;20028;-76
2021/11/27 01:48:17;;;;;;;7.38;4.45;;;10.50;82.60;;;;;;5054404;28;20024;-76
2021/11/27 01:51:00;;;;;;;7.78;4.60;;;10.40;82.60;;;;;;5072217;28;20074;-76
2021/11/27 01:53:29;;;;;;;7.07;4.50;;;10.40;83.10;;;;;;5054657;28;20115;-77
2021/11/27 01:55:59;;;;;;;6.88;4.30;;;10.40;82.60;;;;;;5072457;28;20020;-77
2021/11/27 01:58:25;;;;;;;6.60;4.03;;;10.40;82.60;;;;;;5072299;28;20020;-77
2021/11/27 02:00:55;;;;;;;6.13;3.90;;;10.30;82.60;;;;;;5054670;28;20031;-78
2021/11/27 02:03:21;;;;;;;6.55;3.85;;;10.40;82.40;;;;;;5072180;28;20043;-77
2021/11/27 02:05:47;;;;;;;6.28;3.80;;;10.40;82.40;;;;;;5072444;28;20021;-77
2021/11/27 02:08:13;;;;;;;6.28;3.85;;;10.40;82.30;;;;;;5054170;28;20028;-76
2021/11/27 02:10:38;;;;;;;6.13;3.85;;;10.50;82.20;;;;;;5054364;28;20024;-77
2021/11/27 02:13:04;;;;;;;6.38;3.78;;;10.40;82.20;;;;;;5072352;28;20108;-76
2021/11/27 02:15:31;;;;;;;6.53;4.03;;;10.40;82.10;;;;;;5054344;28;20039;-76
2021/11/27 02:17:57;;;;;;;6.47;3.50;;;10.50;82.10;;;;;;5054006;28;20024;-77
2021/11/27 02:20:23;;;;;;;6.18;3.53;;;10.60;82.10;;;;;;5054295;28;20073;-77
2021/11/27 02:22:48;;;;;;;5.80;3.60;;;10.50;81.90;;;;;;5055221;28;20068;-77
2021/11/27 02:25:17;;;;;;;6.50;3.40;;;10.50;82.10;;;;;;5072151;28;20055;-77
2021/11/27 02:27:46;;;;;;;6.05;3.60;;;10.50;81.90;;;;;;5054383;28;20397;-77
2021/11/27 02:30:14;;;;;;;7.25;3.58;;;10.60;82.00;;;;;;5072170;28;20155;-77
2021/11/27 02:32:40;;;;;;;5.68;3.40;;;10.50;81.90;;;;;;5054036;28;20029;-77
2021/11/27 02:35:06;;;;;;;5.70;3.38;;;10.50;82.00;;;;;;5071877;28;20116;-77
2021/11/27 02:37:32;;;;;;;5.15;3.05;;;10.50;81.90;;;;;;5053784;28;20491;-76
2021/11/27 02:39:58;;;;;;;5.60;3.10;;;10.60;82.00;;;;;;5072067;28;20052;-76
2021/11/27 02:42:24;;;;;;;5.63;3.10;;;10.40;82.00;;;;;;5054023;28;20032;-76
2021/11/27 02:44:50;;;;;;;5.30;3.15;;;10.50;82.00;;;;;;5072017;28;20028;-77
2021/11/27 02:47:17;;;;;;;5.68;3.08;;;10.50;81.90;;;;;;5053930;28;20562;-76
2021/11/27 02:49:43;;;;;;;4.97;2.85;;;10.50;82.40;;;;;;5053983;28;20040;-77
2021/11/27 02:52:08;;;;;;;5.03;2.83;;;10.60;82.50;;;;;;5071843;28;20390;-76
2021/11/27 02:54:34;;;;;;;5.47;3.08;;;10.50;83.00;;;;;;5053931;28;20017;-77
2021/11/27 02:57:00;;;;;;;5.32;3.13;;;10.50;82.60;;;;;;5053879;28;20512;-76
2021/11/27 02:59:28;;;;;;;4.90;2.88;;;10.50;82.70;;;;;;5053930;28;20032;-76
2021/11/27 03:01:57;;;;;;;5.55;2.95;;;10.40;82.90;;;;;;5053898;28;20020;-77
2021/11/27 03:04:24;;;;;;;4.95;2.72;;;10.50;83.10;;;;;;5053926;28;20115;-76
2021/11/27 03:06:50;;;;;;;4.40;2.55;;;10.30;83.10;;;;;;5053673;28;20100;-76
2021/11/27 03:09:16;;;;;;;5.20;2.83;;;10.30;83.20;;;;;;5053691;28;20558;-76
2021/11/27 03:11:43;;;;;;;4.32;2.58;;;10.40;83.40;;;;;;5053874;28;20028;-76
2021/11/27 03:14:09;;;;;;;4.72;2.70;;;10.40;83.40;;;;;;5071680;28;20023;-77
2021/11/27 03:16:38;;;;;;;5.13;2.53;;;10.40;83.40;;;;;;5056024;28;20025;-77
2021/11/27 03:19:05;;;;;;;4.43;2.65;;;10.30;83.40;;;;;;5055643;28;20444;-75
2021/11/27 03:21:30;;;;;;;4.15;2.55;;;10.40;83.60;;;;;;5055629;28;20409;-76
2021/11/27 03:23:56;;;;;;;5.45;3.22;;;10.40;83.40;;;;;;5075145;28;20028;-76
2021/11/27 03:26:22;;;;;;;3.95;2.30;;;10.40;83.60;;;;;;5057364;28;20035;-76
2021/11/27 03:28:47;;;;;;;4.07;2.40;;;10.40;83.50;;;;;;5074787;28;20031;-77
2021/11/27 03:31:13;;;;;;;4.32;2.45;;;10.40;83.50;;;;;;5075099;28;20482;-76
2021/11/27 03:33:40;;;;;;;4.93;2.70;;;10.30;83.50;;;;;;5056902;28;20070;-76
2021/11/27 03:36:05;;;;;;;4.90;2.50;;;10.30;83.50;;;;;;5057075;28;20111;-76
2021/11/27 03:38:32;;;;;;;3.83;2.20;;;10.30;83.40;;;;;;5056746;28;20067;-77
2021/11/27 03:40:58;;;;;;;5.05;2.35;;;10.20;83.30;;;;;;5074986;28;20375;-76
2021/11/27 03:43:23;;;;;;;3.85;2.30;;;10.40;83.40;;;;;;5056915;28;20031;-76
2021/11/27 03:45:49;;;;;;;3.88;2.25;;;10.30;83.30;;;;;;5074820;28;20067;-76
2021/11/27 03:48:24;;;;;;;3.95;2.10;;;10.30;83.30;;;;;;5056693;28;20029;-76
2021/11/27 03:50:52;;;;;;;3.88;2.08;;;10.30;83.20;;;;;;5056958;28;20042;-76
2021/11/27 03:53:30;;;;;;;4.57;2.30;;;10.30;83.20;;;;;;5056573;28;20024;-77
2021/11/27 03:55:56;;;;;;;4.85;2.00;;;10.40;83.30;;;;;;5074664;28;20100;-76
2021/11/27 03:58:22;;;;;;;3.03;1.90;;;10.20;83.10;;;;;;5056485;28;20028;-76
2021/11/27 04:00:51;;;;;;;3.15;1.92;;;10.30;83.10;;;;;;5056694;28;20028;-76
2021/11/27 04:03:17;;;;;;;4.20;1.85;;;10.30;83.00;;;;;;5074359;28;20524;-77
2021/11/27 04:05:48;;;;;;;2.97;1.80;;;10.40;83.10;;;;;;5056518;28;20029;-76
2021/11/27 04:08:15;;;;;;;3.45;1.90;;;10.40;83.10;;;;;;5056080;28;20026;-75
2021/11/27 04:10:41;;;;;;;3.30;1.88;;;10.30;83.00;;;;;;5071655;28;20063;-76
2021/11/27 04:13:07;;;;;;;3.13;1.75;;;10.30;83.00;;;;;;5063509;28;20036;-76
2021/11/27 04:15:33;;;;;;;4.35;2.08;;;10.30;82.90;;;;;;5070090;28;20033;-77
2021/11/27 04:17:59;;;;;;;3.83;2.10;;;10.40;83.00;;;;;;5051643;28;20029;-76
2021/11/27 04:20:25;;;;;;;3.47;1.98;;;10.30;82.90;;;;;;5051968;28;20031;-76
2021/11/27 04:22:51;;;;;;;3.30;2.00;;;10.40;83.00;;;;;;5051943;28;20032;-77
2021/11/27 04:25:17;;;;;;;2.90;1.80;;;10.30;82.90;;;;;;5070017;28;20024;-76
2021/11/27 04:27:43;;;;;;;3.42;1.77;;;10.40;83.10;;;;;;5069428;28;20478;-76
2021/11/27 04:30:14;;;;;;;4.57;1.80;;;10.40;83.10;;;;;;5051871;28;20025;-77
2021/11/27 04:32:40;;;;;;;6.38;1.80;;;10.40;83.10;;;;;;5051929;28;20021;-76
2021/11/27 04:35:07;;;;;;;37.53;4.93;;;10.40;83.10;;;;;;5051309;28;20447;-76
2021/11/27 04:37:32;;;;;;;16.98;3.22;;;10.40;83.20;;;;;;5053964;28;20587;-76
2021/11/27 04:39:58;;;;;;;11.40;2.83;;;10.30;83.00;;;;;;5031172;28;20024;-76
2021/11/27 04:42:24;;;;;;;6.75;1.83;;;10.40;83.10;;;;;;5048879;28;20033;-77
2021/11/27 04:44:50;;;;;;;9.13;2.70;;;10.40;83.10;;;;;;5049128;28;20079;-78
2021/11/27 04:47:16;;;;;;;6.28;2.00;;;10.40;83.10;;;;;;5031553;28;20029;-76
2021/11/27 04:49:41;;;;;;;5.70;2.25;;;10.40;83.10;;;;;;5031491;28;20033;-74
2021/11/27 04:52:07;;;;;;;6.15;1.80;;;10.40;83.10;;;;;;5031121;28;20021;-75
2021/11/27 04:54:34;;;;;;;4.63;1.90;;;10.40;83.10;;;;;;5049189;28;20025;-78
2021/11/27 04:57:00;;;;;;;7.88;2.05;;;10.40;83.10;;;;;;5049206;28;20040;-75
2021/11/27 04:59:26;;;;;;;5.32;1.90;;;10.40;83.10;;;;;;5033528;28;20025;-76
2021/11/27 05:01:52;;;;;;;4.85;1.77;;;10.40;83.10;;;;;;5035691;28;20025;-77
2021/11/27 05:04:18;;;;;;;6.30;1.95;;;10.30;83.10;;;;;;5035605;28;20029;-77
2021/11/27 05:06:44;;;;;;;4.57;2.08;;;10.40;83.20;;;;;;5035192;28;20036;-77
2021/11/27 05:09:11;;;;;;;4.22;2.20;;;10.40;83.20;;;;;;5053234;28;20537;-77
2021/11/27 05:11:36;;;;;;;6.70;2.20;;;10.40;83.30;;;;;;5053091;28;20394;-77
2021/11/27 05:14:02;;;;;;;4.40;2.00;;;10.40;83.40;;;;;;5053250;28;20017;-77
2021/11/27 05:16:28;;;;;;;3.92;2.00;;;10.40;83.30;;;;;;5035110;28;20024;-77
2021/11/27 05:18:54;;;;;;;5.70;2.20;;;10.40;83.40;;;;;;5035193;28;20025;-77
2021/11/27 05:21:20;;;;;;;5.90;2.20;;;10.30;83.30;;;;;;5053034;28;20030;-77
2021/11/27 05:23:45;;;;;;;4.65;2.13;;;10.40;83.40;;;;;;5054991;28;20040;-78
2021/11/27 05:26:11;;;;;;;5.68;2.40;;;10.40;83.50;;;;;;5072924;28;20090;-78
2021/11/27 05:28:37;;;;;;;4.78;2.22;;;10.40;84.00;;;;;;5054716;28;20115;-78
2021/11/27 05:31:03;;;;;;;6.63;2.28;;;10.40;83.50;;;;;;5054374;28;20017;-77
2021/11/27 05:36:13;;;;;;;3.60;2.10;;;10.40;83.60;;;;;;5072988;28;20021;-77
2021/11/27 05:38:39;;;;;;;7.82;2.20;;;10.40;83.60;;;;;;5054267;28;20035;-77
2021/11/27 05:41:06;;;;;;;5.88;2.40;;;10.30;84.10;;;;;;5072807;28;20037;-77
2021/11/27 05:43:32;;;;;;;5.38;2.40;;;10.30;83.70;;;;;;5054660;28;20090;-77
2021/11/27 05:45:58;;;;;;;5.35;2.45;;;10.40;83.70;;;;;;5054722;28;20029;-77
2021/11/27 05:48:24;;;;;;;5.60;2.47;;;10.40;83.70;;;;;;5054351;28;20032;-79
2021/11/27 05:50:50;;;;;;;3.67;2.20;;;10.40;83.70;;;;;;5072514;28;20043;-77
2021/11/27 05:53:18;;;;;;;4.45;2.40;;;10.30;83.70;;;;;;5054368;28;20478;-78
2021/11/27 05:55:46;;;;;;;5.80;2.50;;;10.40;83.80;;;;;;5054530;28;20021;-78
2021/11/27 05:58:13;;;;;;;4.80;2.45;;;10.40;83.90;;;;;;5054341;28;20664;-78
2021/11/27 06:00:39;;;;;;;4.90;2.30;;;10.40;83.80;;;;;;5072476;28;20032;-77
2021/11/27 06:03:04;;;;;;;4.88;2.38;;;10.40;83.90;;;;;;5054559;28;20119;-77
2021/11/27 06:05:30;;;;;;;4.35;2.28;;;10.40;83.90;;;;;;5054521;28;20048;-77
2021/11/27 06:07:57;;;;;;;5.00;2.30;;;10.40;83.90;;;;;;5054779;28;20513;-77
2021/11/27 06:10:23;;;;;;;6.22;2.63;;;10.30;83.80;;;;;;5054633;28;20036;-77
2021/11/27 06:12:48;;;;;;;6.30;2.97;;;10.50;84.00;;;;;;5072221;28;20020;-76
2021/11/27 06:15:14;;;;;;;6.30;2.65;;;10.40;83.90;;;;;;5072196;28;20070;-77
2021/11/27 06:17:40;;;;;;;5.75;2.55;;;10.40;84.00;;;;;;5054084;28;20031;-76
2021/11/27 06:20:06;;;;;;;5.55;2.60;;;10.40;84.00;;;;;;5072138;28;20027;-78
2021/11/27 06:22:32;;;;;;;5.82;2.90;;;10.40;83.90;;;;;;5053982;28;20032;-76
2021/11/27 06:24:58;;;;;;;6.35;2.95;;;10.40;84.00;;;;;;5054284;28;20036;-77
2021/11/27 06:27:23;;;;;;;5.95;3.05;;;10.40;84.00;;;;;;5072037;28;20032;-76
2021/11/27 06:29:49;;;;;;;7.32;3.13;;;10.40;84.00;;;;;;5072109;28;20063;-77
2021/11/27 06:32:21;;;;;;;6.97;3.45;;;10.40;84.00;;;;;;5054221;28;20045;-77
2021/11/27 06:34:47;;;;;;;;;;;10.40;84.00;;;;;;5054518;28;20062;-76
2021/11/27 06:37:12;;;;;;;7.50;3.20;;;10.30;84.00;;;;;;5053924;28;20003;-76
2021/11/27 06:39:38;;;;;;;9.27;3.20;;;10.40;84.00;;;;;;5054355;28;20020;-76
2021/11/27 06:42:05;;;;;;;7.68;3.10;;;10.40;83.70;;;;;;5054051;28;20569;-76
2021/11/27 06:44:31;;;;;;;7.75;3.30;;;10.40;83.70;;;;;;5054279;28;20058;-76
2021/11/27 06:46:57;;;;;;;7.07;3.20;;;10.30;83.50;;;;;;5053998;28;20036;-76
2021/11/27 06:49:23;;;;;;;6.68;3.25;;;10.40;83.50;;;;;;5054245;28;20029;-77
2021/11/27 06:51:50;;;;;;;8.02;3.40;;;10.40;83.70;;;;;;5074675;28;20059;-77
2021/11/27 06:54:15;;;;;;;7.72;4.00;;;10.40;83.90;;;;;;5075746;28;20394;-77
2021/11/27 06:56:41;;;;;;;9.38;4.70;;;10.40;84.10;;;;;;5057633;28;20021;-77
2021/11/27 06:59:07;;;;;;;8.25;4.45;;;10.40;84.10;;;;;;5057947;28;20034;-77
2021/11/27 07:01:32;;;;;;;7.20;4.50;;;10.40;84.10;;;;;;5075614;28;20566;-77
2021/11/27 07:03:59;;;;;;;7.85;4.07;;;10.40;84.20;;;;;;5075614;28;20025;-76
2021/11/27 07:06:25;;;;;;;6.97;4.10;;;10.40;84.20;;;;;;5075500;28;20580;-76
2021/11/27 07:08:50;;;;;;;7.70;4.28;;;10.40;84.30;;;;;;5057356;28;20191;-77
2021/11/27 07:11:16;;;;;;;7.70;4.43;;;10.30;84.30;;;;;;5075533;28;20020;-77
2021/11/27 07:13:42;;;;;;;7.20;4.13;;;10.40;84.40;;;;;;5075333;28;20020;-76
2021/11/27 07:16:07;;;;;;;8.20;4.15;;;10.40;84.20;;;;;;5057521;28;20024;-76
2021/11/27 07:18:33;;;;;;;7.80;4.80;;;10.50;84.10;;;;;;5075067;28;20025;-76
2021/11/27 07:20:59;;;;;;;7.90;4.53;;;10.50;84.00;;;;;;5057415;28;20405;-77
2021/11/27 07:23:24;;;;;;;6.90;3.97;;;10.50;84.30;;;;;;5075037;28;20528;-76
2021/11/27 07:25:50;;;;;;;7.57;4.40;;;10.50;83.80;;;;;;5075234;28;20029;-76
2021/11/27 07:28:16;;;;;;;7.45;4.93;;;10.50;83.70;;;;;;5074965;28;20024;-76
2021/11/27 07:30:42;;;;;;;6.75;4.10;;;10.50;83.60;;;;;;5057409;28;20025;-76
2021/11/27 07:33:08;;;;;;;6.78;4.13;;;10.40;83.50;;;;;;5056412;28;20025;-76
2021/11/27 07:35:33;;;;;;;7.50;4.50;;;10.50;83.40;;;;;;5057292;28;20032;-77
2021/11/27 07:37:59;;;;;;;7.63;4.25;;;10.50;83.40;;;;;;5054958;28;20031;-76
2021/11/27 07:40:26;;;;;;;6.88;4.18;;;10.50;83.40;;;;;;5056932;28;20051;-76
2021/11/27 07:42:52;;;;;;;5.90;3.95;;;10.50;83.40;;;;;;5056699;28;20028;-76
2021/11/27 07:45:21;;;;;;;7.07;4.20;;;10.50;83.40;;;;;;5074699;28;20012;-75
2021/11/27 07:47:47;;;;;;;7.50;4.43;;;10.50;83.30;;;;;;5056366;28;20028;-75
2021/11/27 07:50:13;;;;;;;5.93;3.70;;;10.60;83.30;;;;;;5056520;28;20031;-75
2021/11/27 07:52:38;;;;;;;7.40;4.43;;;10.50;83.00;;;;;;5056559;28;20031;-75
2021/11/27 07:55:05;;;;;;;10.68;4.05;;;10.60;83.00;;;;;;5056658;28;20044;-75
2021/11/27 07:57:30;;;;;;;8.23;3.80;;;10.60;83.20;;;;;;5074159;28;20020;-75
2021/11/27 07:59:56;;;;;;;8.27;3.67;;;10.50;83.00;;;;;;5056381;28;20043;-75
2021/11/27 08:02:21;;;;;;;7.60;3.88;;;10.50;83.10;;;;;;5055891;28;20035;-75
2021/11/27 08:04:47;;;;;;;8.18;3.70;;;10.50;83.50;;;;;;5074353;28;20024;-76
2021/11/27 08:07:13;;;;;;;5.90;3.10;;;10.50;83.70;;;;;;5056002;28;20028;-75
2021/11/27 08:09:38;;;;;;;6.75;3.50;;;10.30;83.70;;;;;;5056258;28;20029;-74
2021/11/27 08:12:05;;;;;;;5.70;3.40;;;10.50;84.00;;;;;;5056206;28;20106;-75
2021/11/27 08:14:33;;;;;;;8.75;3.33;;;10.40;84.10;;;;;;5056118;28;20020;-75
2021/11/27 08:17:00;;;;;;;6.97;3.45;;;10.40;84.20;;;;;;5055755;28;20044;-75
2021/11/27 08:19:27;;;;;;;6.43;3.20;;;10.40;84.30;;;;;;5074028;28;20028;-75
2021/11/27 08:21:53;;;;;;;6.65;3.10;;;10.40;84.90;;;;;;5073837;28;20064;-75
2021/11/27 08:24:19;;;;;;;5.57;3.08;;;10.40;84.40;;;;;;5089652;22;20048;-77
2021/11/27 08:26:44;;;;;;;5.85;2.90;;;10.40;84.50;;;;;;5072234;28;20393;-76
2021/11/27 08:29:10;;;;;;;6.70;2.97;;;10.30;84.40;;;;;;5073150;28;20052;-77
2021/11/27 08:31:36;;;;;;;4.88;2.88;;;10.40;84.50;;;;;;5073017;28;20020;-77
2021/11/27 08:34:02;;;;;;;5.68;2.92;;;10.40;84.50;;;;;;5086356;28;20020;-77
2021/11/27 08:36:28;;;;;;;5.15;2.80;;;10.20;84.40;;;;;;5094422;28;20366;-77
2021/11/27 08:38:53;;;;;;;6.70;3.00;;;10.30;84.40;;;;;;5094150;28;20064;-77
2021/11/27 08:41:19;;;;;;;5.03;3.03;;;10.30;84.40;;;;;;5093128;28;20058;-77
2021/11/27 08:43:45;;;;;;;6.53;3.08;;;10.40;84.50;;;;;;5093169;28;20020;-77
2021/11/27 08:46:10;;;;;;;7.35;3.22;;;10.40;84.50;;;;;;5094493;28;20024;-77
2021/11/27 08:48:37;;;;;;;5.40;3.28;;;10.40;84.40;;;;;;5094065;28;20366;-77
2021/11/27 08:51:08;;;;;;;5.97;3.40;;;10.40;84.40;;;;;;5093200;28;20024;-78
2021/11/27 08:53:35;;;;;;;5.70;3.67;;;10.30;84.20;;;;;;5092969;28;20034;-78
2021/11/27 08:56:01;;;;;;;6.60;4.10;;;10.50;84.30;;;;;;5093117;28;20024;-77
2021/11/27 08:58:27;;;;;;;7.20;4.40;;;10.40;84.70;;;;;;5092751;28;20024;-77
2021/11/27 09:00:53;;;;;;;6.50;4.30;;;10.40;84.10;;;;;;5092707;28;20031;-77
2021/11/27 09:03:18;;;;;;;7.07;4.80;;;10.30;84.00;;;;;;5092691;28;20496;-78
2021/11/27 09:05:44;;;;;;;6.97;4.45;;;10.30;84.00;;;;;;5093797;28;20024;-78
2021/11/27 09:08:10;;;;;;;7.03;4.30;;;10.30;84.00;;;;;;5092289;28;20024;-77
2021/11/27 09:10:36;;;;;;;8.05;5.03;;;10.40;84.20;;;;;;5092696;28;20370;-77
2021/11/27 09:13:02;;;;;;;8.52;5.25;;;10.40;84.20;;;;;;5093065;28;20016;-77
2021/11/27 09:15:28;;;;;;;7.53;5.10;;;10.40;84.20;;;;;;5092412;28;20051;-77
2021/11/27 09:17:54;;;;;;;7.72;4.93;;;10.40;84.30;;;;;;5092579;28;20485;-77
2021/11/27 09:20:20;;;;;;;7.63;5.35;;;10.40;84.30;;;;;;5093947;28;20027;-77
2021/11/27 09:22:46;;;;;;;8.90;6.30;;;10.30;84.30;;;;;;5092226;28;20016;-78
2021/11/27 09:25:11;;;;;;;8.40;5.55;;;10.40;84.40;;;;;;5093585;28;20023;-78
2021/11/27 09:27:37;;;;;;;8.80;5.65;;;10.40;84.40;;;;;;5093363;28;20024;-77
2021/11/27 09:30:06;;;;;;;9.05;6.10;;;10.40;84.30;;;;;;5093243;28;20108;-77
2021/11/27 09:32:32;;;;;;;9.55;6.28;;;10.40;84.20;;;;;;5092145;28;20067;-79
2021/11/27 09:34:58;;;;;;;8.85;6.28;;;10.40;84.20;;;;;;5091633;28;20055;-77
2021/11/27 09:37:24;;;;;;;9.00;6.60;;;10.40;84.20;;;;;;5091960;28;20024;-77
2021/11/27 09:39:50;;;;;;;8.70;6.20;;;10.30;84.10;;;;;;5092064;28;20027;-78
2021/11/27 09:42:17;;;;;;;9.35;6.50;;;10.40;84.20;;;;;;5093369;28;20388;-77
2021/11/27 09:44:52;;;;;;;10.32;6.95;;;10.40;84.30;;;;;;5092307;28;20370;-77
2021/11/27 09:47:18;;;;;;;9.80;6.45;;;10.40;84.20;;;;;;5091854;28;20123;-77
2021/11/27 09:49:45;;;;;;;8.85;6.47;;;10.40;84.20;;;;;;5093095;28;20106;-77
2021/11/27 09:52:12;;;;;;;9.48;6.38;;;10.40;84.20;;;;;;5091890;28;20500;-77
2021/11/27 09:54:39;;;;;;;9.52;6.25;;;10.40;84.20;;;;;;5093013;28;20058;-77
2021/11/27 09:57:09;;;;;;;9.07;6.25;;;10.40;84.30;;;;;;5093009;28;20080;-77
2021/11/27 09:59:39;;;;;;;9.68;6.85;;;10.40;84.30;;;;;;5093167;28;20096;-77
2021/11/27 10:02:08;;;;;;;8.98;6.60;;;10.40;84.30;;;;;;5091945;28;20594;-77
2021/11/27 10:04:34;;;;;;;9.07;6.65;;;10.40;84.30;;;;;;5091530;28;20119;-77
2021/11/27 10:07:00;;;;;;;8.90;6.50;;;10.30;84.20;;;;;;5091597;28;20028;-77
2021/11/27 10:09:26;;;;;;;9.50;6.47;;;10.30;84.20;;;;;;5091775;28;20119;-77
2021/11/27 10:11:53;;;;;;;9.40;6.38;;;10.40;84.30;;;;;;5091996;28;20020;-77
2021/11/27 10:14:20;;;;;;;8.57;6.20;;;10.40;84.30;;;;;;5091796;28;20162;-77
2021/11/27 10:16:58;;;;;;;8.13;5.80;;;10.20;84.20;;;;;;5092955;28;20388;-77
2021/11/27 10:19:27;;;;;;;8.57;6.20;;;10.40;84.30;;;;;;5091834;28;20066;-77
2021/11/27 10:21:58;;;;;;;8.88;6.45;;;10.40;84.30;;;;;;5093236;28;20024;-77
2021/11/27 10:24:27;;;;;;;8.23;5.87;;;10.40;84.20;;;;;;5092074;28;20253;-77
2021/11/27 10:26:53;;;;;;;9.00;6.60;;;10.40;84.10;;;;;;5095718;28;20274;-77
2021/11/27 10:29:28;;;;;;;8.88;6.18;;;10.30;84.10;;;;;;5094215;28;20020;-79
2021/11/27 10:32:12;;;;;;;10.05;5.80;;;10.40;84.10;;;;;;5096934;28;20021;-78
2021/11/27 10:34:50;;;;;;;9.90;6.38;;;10.30;80.30;;;;;;5094827;28;20024;-78
2021/11/27 10:37:27;;;;;;;9.95;5.97;;;10.30;80.00;;;;;;5095111;28;20020;-78
2021/11/27 10:40:07;;;;;;;10.60;6.20;;;10.30;81.00;;;;;;5095275;28;20024;-77
2021/11/27 10:42:34;;;;;;;11.90;5.68;;;10.30;81.00;;;;;;5095204;28;20016;-78
2021/11/27 10:45:16;;;;;;;11.15;6.13;;;10.30;81.20;;;;;;5096715;28;20486;-77
2021/11/27 10:47:43;;;;;;;9.60;5.90;;;10.30;81.90;;;;;;5094993;28;20031;-77
2021/11/27 10:50:11;;;;;;;8.45;6.05;;;10.30;82.30;;;;;;5095192;28;20048;-78
2021/11/27 10:52:38;;;;;;;8.63;5.80;;;10.30;82.70;;;;;;5095342;28;20020;-77
2021/11/27 10:55:26;;;;;;;8.27;5.93;;;10.30;82.90;;;;;;5095008;28;20024;-77
2021/11/27 10:57:59;;;;;;;8.45;5.93;;;10.30;83.10;;;;;;5096067;28;20023;-77
2021/11/27 11:00:35;;;;;;;9.25;6.47;;;10.40;83.30;;;;;;5096363;28;20397;-77
2021/11/27 11:03:02;;;;;;;10.48;6.63;;;10.30;83.30;;;;;;5095015;28;20090;-78
2021/11/27 11:05:39;;;;;;;9.55;6.72;;;10.40;83.50;;;;;;5096205;28;20035;-78
2021/11/27 11:08:07;;;;;;;9.07;6.75;;;10.30;83.50;;;;;;5094418;28;20024;-77
2021/11/27 11:10:35;;;;;;;10.55;7.22;;;10.30;83.50;;;;;;5094836;28;20020;-77
2021/11/27 11:13:05;;;;;;;10.18;7.32;;;10.30;83.50;;;;;;5096088;28;20020;-77
2021/11/27 11:15:42;;;;;;;9.90;7.40;;;10.30;83.50;;;;;;5096032;28;20440;-77
2021/11/27 11:18:16;;;;;;;10.13;7.15;;;10.40;83.60;;;;;;5094490;28;20477;-77
2021/11/27 11:21:00;;;;;;;11.02;7.70;;;10.30;83.50;;;;;;5094774;28;20115;-76
2021/11/27 11:23:37;;;;;;;12.95;8.23;;;10.30;83.50;;;;;;5094591;28;20036;-76
2021/11/27 11:26:06;;;;;;;10.70;7.72;;;10.40;83.60;;;;;;5094817;28;20020;-76
2021/11/27 11:28:39;;;;;;;11.85;8.23;;;10.40;83.60;;;;;;5095701;28;20099;-76
2021/11/27 11:31:11;;;;;;;14.05;8.82;;;10.40;83.70;;;;;;5095841;28;20027;-77
2021/11/27 11:33:40;;;;;;;12.90;9.20;;;10.30;83.60;;;;;;5094311;28;20020;-77
2021/11/27 11:36:09;;;;;;;12.00;8.93;;;10.40;83.70;;;;;;5094999;28;20388;-77
2021/11/27 11:38:36;;;;;;;12.15;9.13;;;10.30;83.60;;;;;;5094184;28;20020;-77
2021/11/27 11:41:02;;;;;;;13.80;9.55;;;10.30;83.60;;;;;;5094391;28;20126;-77
2021/11/27 11:43:28;;;;;;;14.40;10.18;;;10.30;83.70;;;;;;5094232;28;20493;-76
2021/11/27 11:45:54;;;;;;;14.07;10.05;;;10.40;83.80;;;;;;5094199;28;20032;-76
2021/11/27 11:48:30;;;;;;;13.18;9.80;;;10.30;83.80;;;;;;5093924;28;20085;-77
2021/11/27 11:51:04;;;;;;;12.52;9.93;;;10.40;84.00;;;;;;5094076;28;20020;-77
2021/11/27 11:54:00;;;;;;;15.30;11.27;;;10.30;83.90;;;;;;5093924;28;20024;-76
2021/11/27 11:56:40;;;;;;;14.38;10.88;;;10.40;84.00;;;;;;5092155;28;20036;-77
2021/11/27 11:59:20;;;;;;;15.90;11.13;;;10.40;84.10;;;;;;5095404;28;20103;-77
2021/11/27 12:02:09;;;;;;;15.80;11.40;;;10.40;84.10;;;;;;5093954;28;20034;-77
2021/11/27 12:04:34;;;;;;;16.20;11.70;;;10.40;84.10;;;;;;5093950;28;20046;-77
2021/11/27 12:07:31;;;;;;;15.63;11.70;;;10.40;84.10;;;;;;5093734;28;20601;-76
2021/11/27 12:10:25;;;;;;;15.13;11.73;;;10.40;84.00;;;;;;5093762;28;20053;-77
2021/11/27 12:13:06;;;;;;;19.30;13.15;;;10.40;84.00;;;;;;5093613;28;20031;-77
2021/11/27 12:15:33;;;;;;;18.85;13.57;;;10.30;83.60;;;;;;5093455;28;20020;-77
2021/11/27 12:18:16;;;;;;;18.48;13.50;;;10.40;83.70;;;;;;5093233;28;20076;-78
2021/11/27 12:20:45;;;;;;;18.67;13.43;;;10.40;83.80;;;;;;5096932;28;20027;-80
2021/11/27 12:23:34;;;;;;;15.98;13.00;;;10.30;83.90;;;;;;5093470;28;20031;-77
2021/11/27 12:26:06;;;;;;;17.67;13.43;;;10.40;84.10;;;;;;5093392;28;20519;-77
2021/11/27 12:28:33;;;;;;;16.73;12.65;;;10.30;84.10;;;;;;5093118;28;20024;-77
2021/11/27 12:31:01;;;;;;;17.95;13.65;;;10.40;84.20;;;;;;5094453;28;20063;-78
2021/11/27 12:34:00;;;;;;;20.35;13.73;;;10.40;84.10;;;;;;5092815;28;20493;-80
2021/11/27 12:36:30;;;;;;;16.52;11.93;;;10.40;84.00;;;;;;5094441;28;20081;-77
2021/11/27 12:38:58;;;;;;;20.55;13.55;;;10.40;83.70;;;;;;5094465;28;20029;-77
2021/11/27 12:41:28;;;;;;;17.42;13.27;;;10.50;83.70;;;;;;5093341;28;20031;-77
2021/11/27 12:44:28;;;;;;;20.38;13.70;;;10.50;83.60;;;;;;5094170;28;20442;-76
2021/11/27 12:47:23;;;;;;;19.23;13.85;;;10.50;83.50;;;;;;5094000;28;20515;-77
2021/11/27 12:49:49;;;;;;;19.75;14.13;;;10.50;83.50;;;;;;5093145;28;20464;-77
2021/11/27 12:52:17;;;;;;;19.13;14.68;;;10.60;83.50;;;;;;5092784;28;20126;-78